createdAt,value
2023-02-20T00:00:37.308Z,65.00
2023-02-20T00:03:05.418Z,62.00
2023-02-20T00:05:32.098Z,64.25
2023-02-20T00:07:59.031Z,64.25
2023-02-20T00:10:25.982Z,63.00
2023-02-20T00:12:53.099Z,60.00
2023-02-20T00:15:21.602Z,59.75
2023-02-20T00:17:48.593Z,62.50
2023-02-20T00:20:23.088Z,61.75
2023-02-20T00:22:50.851Z,60.50
2023-02-20T00:25:18.849Z,57.50
2023-02-20T00:27:45.544Z,56.50
2023-02-20T00:30:17.910Z,55.75
2023-02-20T00:32:44.559Z,59.75
2023-02-20T00:35:12.118Z,56.00
2023-02-20T00:37:38.951Z,51.75
2023-02-20T00:40:06.405Z,56.50
2023-02-20T00:42:33.020Z,52.50
2023-02-20T00:44:59.709Z,55.25
2023-02-20T00:47:26.428Z,58.00
2023-02-20T00:49:53.020Z,54.75
2023-02-20T00:52:19.632Z,62.25
2023-02-20T00:54:46.223Z,56.50
2023-02-20T00:57:12.857Z,60.00
2023-02-20T00:59:39.475Z,62.50
2023-02-20T01:02:06.236Z,53.50
2023-02-20T01:04:32.932Z,62.25
2023-02-20T01:06:59.559Z,52.00
2023-02-20T01:09:28.149Z,62.00
2023-02-20T01:11:55.018Z,57.00
2023-02-20T01:14:22.016Z,55.25
2023-02-20T01:16:53.842Z,51.75
2023-02-20T01:19:22.895Z,57.25
2023-02-20T01:21:49.970Z,51.25
2023-02-20T01:24:17.565Z,50.75
2023-02-20T01:26:45.927Z,56.25
2023-02-20T01:29:13.036Z,54.25
2023-02-20T01:31:39.755Z,51.00
2023-02-20T01:34:06.964Z,54.75
2023-02-20T01:36:34.440Z,57.25
2023-02-20T01:39:01.054Z,59.75
2023-02-20T01:41:27.834Z,52.00
2023-02-20T01:43:54.438Z,55.50
2023-02-20T01:46:26.959Z,50.75
2023-02-20T01:49:08.576Z,53.50
2023-02-20T01:51:40.626Z,51.50
2023-02-20T01:54:11.379Z,54.50
2023-02-20T01:56:38.795Z,50.50
2023-02-20T01:59:08.273Z,48.25
2023-02-20T02:01:36.638Z,54.50
2023-02-20T02:04:06.422Z,56.75
2023-02-20T02:06:36.387Z,51.50
2023-02-20T02:09:12.801Z,51.50
2023-02-20T02:11:39.619Z,46.25
2023-02-20T02:14:07.296Z,53.50
2023-02-20T02:16:55.269Z,48.50
2023-02-20T02:19:42.449Z,55.25
2023-02-20T02:22:46.869Z,51.25
2023-02-20T02:25:19.188Z,51.00
2023-02-20T02:27:54.741Z,47.50
2023-02-20T02:30:48.845Z,36.50
2023-02-20T02:33:52.799Z,48.50
2023-02-20T02:36:36.756Z,51.25
2023-02-20T02:39:27.608Z,44.50
2023-02-20T02:42:03.173Z,42.00
2023-02-20T02:44:47.856Z,49.00
2023-02-20T02:47:40.632Z,45.75
2023-02-20T02:50:23.427Z,49.25
2023-02-20T02:52:51.880Z,52.75
2023-02-20T02:55:23.246Z,56.50
2023-02-20T02:57:50.481Z,54.00
2023-02-20T03:00:23.574Z,51.25
2023-02-20T03:03:18.285Z,60.25
2023-02-20T03:05:55.324Z,59.00
2023-02-20T03:08:37.022Z,10.25
2023-02-20T03:11:09.844Z,54.25
2023-02-20T03:14:10.384Z,54.75
2023-02-20T03:16:46.258Z,53.00
2023-02-20T03:19:14.750Z,55.50
2023-02-20T03:21:46.366Z,58.00
2023-02-20T03:24:15.634Z,56.75
2023-02-20T03:26:44.350Z,55.00
2023-02-20T03:29:38.513Z,56.00
2023-02-20T03:32:27.550Z,55.50
2023-02-20T03:35:15.779Z,58.25
2023-02-20T03:38:04.730Z,59.00
2023-02-20T03:40:51.498Z,61.00
2023-02-20T03:43:27.861Z,56.25
2023-02-20T03:46:11.862Z,57.00
2023-02-20T03:48:49.336Z,52.25
2023-02-20T03:51:16.516Z,55.25
2023-02-20T03:53:45.895Z,51.50
2023-02-20T03:56:18.919Z,51.25
2023-02-20T03:58:52.318Z,55.75
2023-02-20T04:01:23.727Z,56.25
2023-02-20T04:03:53.709Z,55.50
2023-02-20T04:06:23.720Z,54.00
2023-02-20T04:09:06.184Z,56.50
2023-02-20T04:11:49.133Z,54.00
2023-02-20T04:14:18.549Z,52.75
2023-02-20T04:16:56.102Z,50.25
2023-02-20T04:19:22.838Z,59.00
2023-02-20T04:21:55.926Z,55.25
2023-02-20T04:24:44.868Z,55.00
2023-02-20T04:27:13.122Z,55.75
2023-02-20T04:29:40.087Z,56.50
2023-02-20T04:32:06.798Z,55.25
2023-02-20T04:34:33.637Z,57.50
2023-02-20T04:37:14.713Z,54.75
2023-02-20T04:39:41.618Z,58.00
2023-02-20T04:42:08.487Z,58.00
2023-02-20T04:44:35.526Z,54.00
2023-02-20T04:47:07.477Z,56.50
2023-02-20T04:49:34.699Z,49.75
2023-02-20T04:52:01.529Z,55.50
2023-02-20T04:54:28.138Z,53.75
2023-02-20T04:56:54.761Z,51.00
2023-02-20T04:59:21.452Z,51.25
2023-02-20T05:01:49.574Z,51.25
2023-02-20T05:04:17.034Z,48.75
2023-02-20T05:06:46.457Z,50.25
2023-02-20T05:09:13.082Z,52.25
2023-02-20T05:11:39.647Z,50.00
2023-02-20T05:14:06.757Z,50.50
2023-02-20T05:16:33.404Z,51.50
2023-02-20T05:19:00.943Z,49.75
2023-02-20T05:21:47.466Z,56.25
2023-02-20T05:24:14.184Z,53.25
2023-02-20T05:26:40.794Z,50.00
2023-02-20T05:29:09.971Z,52.00
2023-02-20T05:31:36.762Z,54.50
2023-02-20T05:34:03.471Z,54.25
2023-02-20T05:36:30.061Z,55.25
2023-02-20T05:38:56.956Z,54.25
2023-02-20T05:41:23.679Z,45.75
2023-02-20T05:43:50.512Z,54.75
2023-02-20T05:46:17.611Z,53.00
2023-02-20T05:48:44.219Z,56.50
2023-02-20T05:51:20.588Z,55.75
2023-02-20T05:53:47.145Z,59.00
2023-02-20T05:56:14.056Z,58.50
2023-02-20T05:58:44.184Z,60.00
2023-02-20T06:01:21.138Z,55.00
2023-02-20T06:03:47.824Z,58.25
2023-02-20T06:06:14.895Z,55.50
2023-02-20T06:08:42.026Z,56.75
2023-02-20T06:11:11.506Z,55.00
2023-02-20T06:13:45.345Z,54.25
2023-02-20T06:16:13.268Z,54.75
2023-02-20T06:18:41.715Z,54.00
2023-02-20T06:21:10.225Z,51.75
2023-02-20T06:23:38.439Z,55.75
2023-02-20T06:26:09.366Z,41.00
2023-02-20T06:28:38.022Z,57.50
2023-02-20T06:31:05.985Z,53.50
2023-02-20T06:33:32.931Z,54.00
2023-02-20T06:35:59.842Z,13.50
2023-02-20T06:38:27.341Z,56.25
2023-02-20T06:40:54.188Z,58.50
2023-02-20T06:43:21.105Z,50.25
2023-02-20T06:45:48.038Z,53.75
2023-02-20T06:48:15.094Z,53.25
2023-02-20T06:50:42.230Z,52.50
2023-02-20T06:53:09.491Z,54.00
2023-02-20T06:55:36.192Z,50.75
2023-02-20T06:58:02.774Z,54.25
2023-02-20T07:00:29.480Z,56.00
2023-02-20T07:02:56.204Z,50.25
2023-02-20T07:05:22.802Z,50.75
2023-02-20T07:07:49.590Z,51.50
2023-02-20T07:10:16.266Z,53.75
2023-02-20T07:12:42.953Z,46.75
2023-02-20T07:15:11.857Z,51.50
2023-02-20T07:17:38.688Z,51.25
2023-02-20T07:20:06.766Z,53.00
2023-02-20T07:22:33.428Z,45.50
2023-02-20T07:25:00.038Z,54.50
2023-02-20T07:27:26.681Z,55.00
2023-02-20T07:29:53.321Z,52.50
2023-02-20T07:32:20.637Z,51.75
2023-02-20T07:35:02.383Z,55.75
2023-02-20T07:37:30.828Z,57.25
2023-02-20T07:39:57.544Z,55.50
2023-02-20T07:42:24.319Z,53.00
2023-02-20T07:44:51.032Z,52.75
2023-02-20T07:47:17.700Z,45.25
2023-02-20T07:49:44.589Z,49.50
2023-02-20T07:52:11.438Z,51.00
2023-02-20T07:54:38.055Z,46.00
2023-02-20T07:57:04.796Z,42.75
2023-02-20T07:59:31.507Z,42.25
2023-02-20T08:01:58.216Z,41.50
2023-02-20T08:04:25.104Z,37.25
2023-02-20T08:06:51.747Z,41.75
2023-02-20T08:09:18.338Z,39.25
2023-02-20T08:11:45.004Z,41.25
2023-02-20T08:14:14.470Z,41.50
2023-02-20T08:16:41.114Z,45.00
2023-02-20T08:19:07.768Z,40.00
2023-02-20T08:21:34.461Z,47.75
2023-02-20T08:24:01.151Z,42.50
2023-02-20T08:26:28.170Z,42.00
2023-02-20T08:28:54.943Z,41.25
2023-02-20T08:31:31.813Z,45.50
2023-02-20T08:33:59.089Z,46.75
2023-02-20T08:36:25.786Z,47.75
2023-02-20T08:38:52.448Z,43.50
2023-02-20T08:41:19.239Z,44.75
2023-02-20T08:43:45.927Z,51.00
2023-02-20T08:46:13.520Z,36.00
2023-02-20T08:48:40.414Z,46.50
2023-02-20T08:51:07.461Z,44.50
2023-02-20T08:53:35.265Z,43.50
2023-02-20T08:56:01.879Z,45.75
2023-02-20T08:58:28.630Z,42.00
2023-02-20T09:00:55.707Z,51.25
2023-02-20T09:03:22.932Z,43.50
2023-02-20T09:05:50.077Z,47.25
2023-02-20T09:08:16.760Z,46.25
2023-02-20T09:10:43.650Z,49.00
2023-02-20T09:13:10.841Z,46.00
2023-02-20T09:15:40.022Z,48.25
2023-02-20T09:18:13.021Z,45.00
2023-02-20T09:20:40.749Z,47.75
2023-02-20T09:23:08.065Z,47.00
2023-02-20T09:25:34.858Z,45.25
2023-02-20T09:28:01.671Z,51.50
2023-02-20T09:30:28.338Z,46.25
2023-02-20T09:32:55.201Z,51.75
2023-02-20T09:35:27.669Z,45.25
2023-02-20T09:37:54.424Z,52.00
2023-02-20T09:40:26.249Z,48.75
2023-02-20T09:43:26.976Z,50.25
2023-02-20T09:46:12.973Z,52.50
2023-02-20T09:49:01.561Z,53.00
2023-02-20T09:51:31.989Z,49.50
2023-02-20T09:54:05.326Z,52.75
2023-02-20T09:56:37.178Z,52.25
2023-02-20T09:59:22.095Z,46.25
2023-02-20T10:02:17.006Z,45.25
2023-02-20T10:05:01.633Z,46.00
2023-02-20T10:07:32.533Z,47.00
2023-02-20T10:10:00.593Z,49.00
2023-02-20T10:12:33.424Z,46.00
2023-02-20T10:15:20.981Z,45.50
2023-02-20T10:18:03.176Z,48.75
2023-02-20T10:20:57.220Z,46.75
2023-02-20T10:24:04.658Z,53.25
2023-02-20T10:26:38.854Z,45.25
2023-02-20T10:29:19.375Z,44.75
2023-02-20T10:31:52.283Z,49.00
2023-02-20T10:34:27.423Z,43.50
2023-02-20T10:37:00.762Z,46.00
2023-02-20T10:39:29.091Z,47.75
2023-02-20T10:42:03.382Z,40.00
2023-02-20T10:44:52.153Z,51.75
2023-02-20T10:47:43.758Z,54.75
2023-02-20T10:50:24.270Z,55.25
2023-02-20T10:53:12.530Z,55.25
2023-02-20T10:55:54.329Z,52.00
2023-02-20T10:58:33.961Z,52.50
2023-02-20T11:01:07.973Z,49.00
2023-02-20T11:03:51.222Z,47.25
2023-02-20T11:06:21.248Z,44.00
2023-02-20T11:08:47.954Z,44.00
2023-02-20T11:11:25.721Z,46.75
2023-02-20T11:13:52.376Z,37.00
2023-02-20T11:16:26.697Z,43.75
2023-02-20T11:19:31.728Z,38.25
2023-02-20T11:21:58.548Z,39.25
2023-02-20T11:24:31.422Z,40.25
2023-02-20T11:27:09.945Z,38.00
2023-02-20T11:30:03.379Z,26.50
2023-02-20T11:32:32.234Z,29.00
2023-02-20T11:35:19.946Z,22.25
2023-02-20T11:38:11.773Z,29.75
2023-02-20T11:40:38.505Z,30.50
2023-02-20T11:43:22.361Z,24.25
2023-02-20T11:45:49.080Z,21.75
2023-02-20T11:48:19.356Z,21.50
2023-02-20T11:50:50.115Z,19.25
2023-02-20T11:53:24.620Z,23.25
2023-02-20T11:56:18.141Z,21.50
2023-02-20T11:58:46.891Z,10.00
2023-02-20T12:01:38.213Z,12.75
2023-02-20T12:04:19.946Z,20.25
2023-02-20T12:06:46.997Z,17.50
2023-02-20T12:09:19.013Z,16.75
2023-02-20T12:11:45.842Z,8.25
2023-02-20T12:14:14.620Z,10.00
2023-02-20T12:17:19.313Z,8.25
2023-02-20T12:20:00.256Z,9.00
2023-02-20T12:22:35.633Z,8.25
2023-02-20T12:25:34.065Z,9.25
2023-02-20T12:28:03.591Z,9.75
2023-02-20T12:31:00.794Z,8.25
2023-02-20T12:33:55.089Z,10.50
2023-02-20T12:36:27.327Z,9.25
2023-02-20T12:39:30.613Z,8.75
2023-02-20T12:42:25.023Z,7.75
2023-02-20T12:45:06.739Z,8.75
2023-02-20T12:47:36.287Z,8.25
2023-02-20T12:50:24.929Z,7.00
2023-02-20T12:52:54.329Z,8.00
2023-02-20T12:55:25.053Z,5.50
2023-02-20T12:58:03.793Z,5.25
2023-02-20T13:00:38.703Z,6.00
2023-02-20T13:03:16.070Z,7.25
2023-02-20T13:05:46.132Z,5.00
2023-02-20T13:08:33.767Z,7.00
2023-02-20T13:11:04.711Z,8.00
2023-02-20T13:13:54.948Z,8.50
2023-02-20T13:16:58.621Z,4.75
2023-02-20T13:19:25.188Z,9.50
2023-02-20T13:21:53.477Z,5.25
2023-02-20T13:24:20.077Z,5.00
2023-02-20T13:26:52.344Z,4.50
2023-02-20T13:29:25.837Z,8.25
2023-02-20T13:31:58.066Z,11.25
2023-02-20T13:34:30.436Z,3.25
2023-02-20T13:36:57.792Z,5.00
2023-02-20T13:39:36.223Z,2.00
2023-02-20T13:42:24.051Z,4.25
2023-02-20T13:44:52.553Z,9.50
2023-02-20T13:47:34.515Z,7.00
2023-02-20T13:50:01.934Z,8.00
2023-02-20T13:52:43.166Z,7.75
2023-02-20T13:55:24.094Z,8.00
2023-02-20T13:57:55.193Z,5.75
2023-02-20T14:00:27.531Z,6.25
2023-02-20T14:02:55.260Z,8.00
2023-02-20T14:05:24.099Z,9.00
2023-02-20T14:07:51.228Z,7.25
2023-02-20T14:10:37.838Z,5.75
2023-02-20T14:13:12.118Z,7.75
2023-02-20T14:15:49.127Z,8.25
2023-02-20T14:18:26.099Z,7.75
2023-02-20T14:21:10.159Z,7.25
2023-02-20T14:23:37.819Z,7.50
2023-02-20T14:26:09.875Z,8.25
2023-02-20T14:28:44.373Z,7.50
2023-02-20T14:31:25.331Z,10.50
2023-02-20T14:33:57.634Z,7.25
2023-02-20T14:36:59.490Z,7.00
2023-02-20T14:39:26.099Z,9.25
2023-02-20T14:41:56.253Z,11.25
2023-02-20T14:44:24.311Z,10.75
2023-02-20T14:46:57.514Z,9.25
2023-02-20T14:49:30.989Z,9.00
2023-02-20T14:52:25.260Z,8.25
2023-02-20T14:55:03.760Z,11.25
2023-02-20T14:57:31.044Z,10.75
2023-02-20T15:00:20.563Z,11.50
2023-02-20T15:02:49.891Z,9.25
2023-02-20T15:05:21.233Z,9.25
2023-02-20T15:07:48.164Z,11.00
2023-02-20T15:10:33.099Z,11.50
2023-02-20T15:13:07.055Z,10.25
2023-02-20T15:15:36.860Z,11.25
2023-02-20T15:18:17.680Z,11.25
2023-02-20T15:20:48.659Z,10.50
2023-02-20T15:23:34.932Z,8.75
2023-02-20T15:26:31.644Z,9.75
2023-02-20T15:29:16.769Z,9.25
2023-02-20T15:31:44.666Z,7.50
2023-02-20T15:34:36.018Z,5.00
2023-02-20T15:37:18.842Z,4.50
2023-02-20T15:39:48.339Z,5.00
2023-02-20T15:42:16.860Z,4.25
2023-02-20T15:44:44.104Z,4.75
2023-02-20T15:47:11.137Z,1.50
2023-02-20T15:49:37.764Z,4.75
2023-02-20T15:52:09.806Z,4.00
2023-02-20T15:54:37.450Z,3.00
2023-02-20T15:57:13.417Z,3.00
2023-02-20T15:59:40.056Z,5.75
2023-02-20T16:02:14.182Z,4.00
2023-02-20T16:04:41.020Z,4.00
2023-02-20T16:07:07.812Z,4.00
2023-02-20T16:09:34.430Z,4.00
2023-02-20T16:12:01.057Z,3.00
2023-02-20T16:14:27.830Z,3.00
2023-02-20T16:16:54.649Z,4.25
2023-02-20T16:19:33.388Z,7.50
2023-02-20T16:22:06.952Z,3.75
2023-02-20T16:24:36.375Z,4.25
2023-02-20T16:27:05.704Z,7.50
2023-02-20T16:29:36.235Z,7.75
2023-02-20T16:32:03.044Z,5.00
2023-02-20T16:34:32.444Z,8.25
2023-02-20T16:36:59.816Z,12.25
2023-02-20T16:39:27.543Z,8.75
2023-02-20T16:41:55.398Z,9.25
2023-02-20T16:44:28.346Z,9.50
2023-02-20T16:46:54.929Z,7.75
2023-02-20T16:49:21.599Z,8.25
2023-02-20T16:51:59.144Z,8.25
2023-02-20T16:54:25.959Z,6.75
2023-02-20T16:56:52.555Z,11.25
2023-02-20T16:59:21.976Z,9.00
2023-02-20T17:01:51.537Z,9.25
2023-02-20T17:04:19.829Z,8.50
2023-02-20T17:06:47.119Z,9.75
2023-02-20T17:09:13.963Z,5.25
2023-02-20T17:11:40.569Z,6.00
2023-02-20T17:14:08.429Z,8.25
2023-02-20T17:16:35.151Z,8.25
2023-02-20T17:19:01.724Z,10.50
2023-02-20T17:21:28.309Z,10.00
2023-02-20T17:23:54.974Z,8.25
2023-02-20T17:26:21.628Z,8.50
2023-02-20T17:28:48.397Z,4.25
2023-02-20T17:31:15.371Z,8.00
2023-02-20T17:33:42.478Z,8.00
2023-02-20T17:36:09.436Z,10.25
2023-02-20T17:38:36.186Z,11.50
2023-02-20T17:41:02.837Z,7.75
2023-02-20T17:43:29.523Z,8.25
2023-02-20T17:45:56.093Z,7.75
2023-02-20T17:48:22.710Z,5.75
2023-02-20T17:50:49.298Z,7.75
2023-02-20T17:53:15.891Z,6.25
2023-02-20T17:55:42.495Z,7.00
2023-02-20T17:58:09.279Z,7.00
2023-02-20T18:00:35.898Z,10.25
2023-02-20T18:03:02.625Z,7.50
2023-02-20T18:05:29.314Z,7.75
2023-02-20T18:07:55.886Z,6.25
2023-02-20T18:10:22.485Z,8.75
2023-02-20T18:13:02.845Z,8.75
2023-02-20T18:15:33.767Z,7.25
2023-02-20T18:18:00.919Z,6.00
2023-02-20T18:20:28.010Z,6.00
2023-02-20T18:22:56.204Z,9.50
2023-02-20T18:25:37.838Z,8.00
2023-02-20T18:28:07.007Z,6.50
2023-02-20T18:30:34.678Z,6.00
2023-02-20T18:33:01.497Z,7.75
2023-02-20T18:35:28.562Z,5.25
2023-02-20T18:37:55.197Z,7.25
2023-02-20T18:40:23.720Z,5.25
2023-02-20T18:42:51.520Z,7.75
2023-02-20T18:45:18.682Z,9.25
2023-02-20T18:47:52.283Z,7.00
2023-02-20T18:50:20.222Z,6.75
2023-02-20T18:52:48.594Z,9.75
2023-02-20T18:55:17.807Z,10.75
2023-02-20T18:57:49.292Z,10.00
2023-02-20T19:00:25.052Z,5.00
2023-02-20T19:02:56.586Z,7.75
2023-02-20T19:05:25.367Z,9.00
2023-02-20T19:07:52.310Z,10.25
2023-02-20T19:10:24.449Z,7.50
2023-02-20T19:12:52.336Z,6.75
2023-02-20T19:15:20.433Z,8.50
2023-02-20T19:17:47.403Z,8.25
2023-02-20T19:20:32.429Z,7.00
2023-02-20T19:23:00.656Z,5.25
2023-02-20T19:25:27.568Z,9.00
2023-02-20T19:27:54.301Z,6.25
2023-02-20T19:30:21.198Z,9.75
2023-02-20T19:32:48.310Z,8.50
2023-02-20T19:35:16.393Z,9.50
2023-02-20T19:37:43.184Z,9.00
2023-02-20T19:40:10.235Z,8.00
2023-02-20T19:42:36.897Z,5.00
2023-02-20T19:45:04.942Z,9.00
2023-02-20T19:47:31.591Z,9.00
2023-02-20T19:49:58.304Z,8.25
2023-02-20T19:52:24.902Z,6.75
2023-02-20T19:54:51.497Z,12.00
2023-02-20T19:57:18.172Z,12.50
2023-02-20T19:59:44.778Z,13.50
2023-02-20T20:02:12.955Z,17.75
2023-02-20T20:04:40.306Z,7.50
2023-02-20T20:07:07.175Z,8.75
2023-02-20T20:09:37.168Z,10.00
2023-02-20T20:12:27.011Z,11.00
2023-02-20T20:14:53.923Z,8.25
2023-02-20T20:17:20.828Z,7.25
2023-02-20T20:19:58.538Z,9.50
2023-02-20T20:22:26.020Z,8.25
2023-02-20T20:24:52.807Z,6.50
2023-02-20T20:27:20.963Z,8.00
2023-02-20T20:29:51.204Z,8.00
2023-02-20T20:32:19.748Z,7.75
2023-02-20T20:34:53.151Z,8.00
2023-02-20T20:37:26.163Z,8.25
2023-02-20T20:39:53.926Z,10.75
2023-02-20T20:42:25.410Z,9.25
2023-02-20T20:45:01.660Z,14.50
2023-02-20T20:47:30.785Z,7.25
2023-02-20T20:49:58.016Z,13.25
2023-02-20T20:52:26.656Z,7.75
2023-02-20T20:54:55.830Z,10.75
2023-02-20T20:57:25.968Z,8.00
2023-02-20T20:59:54.901Z,9.00
2023-02-20T21:02:22.636Z,9.00
2023-02-20T21:04:52.946Z,7.75
2023-02-20T21:07:22.549Z,7.50
2023-02-20T21:09:49.127Z,12.25
2023-02-20T21:12:15.918Z,11.75
2023-02-20T21:14:43.627Z,10.50
2023-02-20T21:17:12.715Z,7.00
2023-02-20T21:19:41.066Z,7.25
2023-02-20T21:22:07.703Z,10.50
2023-02-20T21:24:37.841Z,11.50
2023-02-20T21:27:05.323Z,10.00
2023-02-20T21:29:33.293Z,10.50
2023-02-20T21:31:59.978Z,10.75
2023-02-20T21:34:27.453Z,9.00
2023-02-20T21:36:54.434Z,11.75
2023-02-20T21:39:21.448Z,8.75
2023-02-20T21:42:06.592Z,10.00
2023-02-20T21:44:36.399Z,12.50
2023-02-20T21:47:06.010Z,10.25
2023-02-20T21:49:34.610Z,11.00
2023-02-20T21:52:01.260Z,11.00
2023-02-20T21:54:31.653Z,11.75
2023-02-20T21:56:59.120Z,12.00
2023-02-20T21:59:26.112Z,12.25
2023-02-20T22:01:53.549Z,10.25
2023-02-20T22:04:21.393Z,13.50
2023-02-20T22:07:07.657Z,9.50
2023-02-20T22:09:52.830Z,16.50
2023-02-20T22:12:38.214Z,11.50
2023-02-20T22:15:24.709Z,17.25
2023-02-20T22:18:10.885Z,11.00
2023-02-20T22:20:56.380Z,13.50
2023-02-20T22:23:41.503Z,14.00
2023-02-20T22:26:26.552Z,13.50
2023-02-20T22:29:11.392Z,14.00
2023-02-20T22:31:56.780Z,15.25
2023-02-20T22:34:41.630Z,18.25
2023-02-20T22:37:26.824Z,19.75
2023-02-20T22:40:12.060Z,10.25
2023-02-20T22:42:57.382Z,19.50
2023-02-20T22:45:42.414Z,14.00
2023-02-20T22:48:27.706Z,15.50
2023-02-20T22:51:13.472Z,18.75
2023-02-20T22:53:58.882Z,18.50
2023-02-20T22:56:44.215Z,12.75
2023-02-20T22:59:29.168Z,14.50
2023-02-20T23:02:14.052Z,16.50
2023-02-20T23:04:59.036Z,16.00
2023-02-20T23:07:47.090Z,21.50
2023-02-20T23:10:32.622Z,18.50
2023-02-20T23:13:18.160Z,19.25
2023-02-20T23:16:03.558Z,17.25
2023-02-20T23:18:48.431Z,21.50
2023-02-20T23:21:34.500Z,18.00
2023-02-20T23:24:19.708Z,18.50
2023-02-20T23:27:10.245Z,20.50
2023-02-20T23:29:55.648Z,20.25
2023-02-20T23:32:41.036Z,22.75
2023-02-20T23:35:26.551Z,19.75
2023-02-20T23:38:11.871Z,20.50
2023-02-20T23:40:57.427Z,20.75
2023-02-20T23:43:42.910Z,24.25
2023-02-20T23:46:27.943Z,23.25
2023-02-20T23:49:13.123Z,21.50
2023-02-20T23:52:00.832Z,28.25
2023-02-20T23:54:50.176Z,24.75
2023-02-20T23:57:35.190Z,23.25
